Time;durP1;ratioP1;P1;durP2;ratioP2;P2;SDS_P1;SDS_P2;PMS_P1;PMS_P2;Temp;Humidity;BMP_temperature;BMP_pressure;BME280_temperature;BME280_humidity;BME280_pressure;Samples;Min_cycle;Max_cycle;Signal;HPM_P1;HPM_P2
2022/11/06 00:01:06;;;;;;;48.70;26.60;;;;;;;4.55;100.00;100402.64;106937;1303;22187;-53
2022/11/06 00:03:33;;;;;;;48.00;28.60;;;;;;;4.57;100.00;100404.41;106720;1303;139751;-53
2022/11/06 00:08:50;;;;;;;44.90;26.10;;;;;;;4.58;100.00;100407.02;106762;1295;138810;-53
2022/11/06 00:11:17;;;;;;;47.20;26.20;;;;;;;4.58;100.00;100406.38;106841;1302;22139;-53
2022/11/06 00:13:46;;;;;;;42.30;26.70;;;;;;;4.61;100.00;100406.05;106824;1299;139335;-53
2022/11/06 00:16:13;;;;;;;44.90;27.40;;;;;;;4.62;100.00;100405.77;106849;1303;22929;-53
2022/11/06 00:18:40;;;;;;;48.70;27.00;;;;;;;4.58;100.00;100399.47;106780;1303;22158;-53
2022/11/06 00:21:07;;;;;;;46.60;27.10;;;;;;;4.62;100.00;100400.82;106764;1303;138310;-54
2022/11/06 00:23:34;;;;;;;54.00;29.20;;;;;;;4.63;100.00;100396.91;106801;1302;22959;-53
2022/11/06 00:26:08;;;;;;;;;;;;;;;4.64;100.00;100394.64;106862;1303;138252;-53
2022/11/06 00:28:35;;;;;;;49.80;28.90;;;;;;;4.65;100.00;100395.48;106865;1291;22936;-53
2022/11/06 00:31:02;;;;;;;;;;;;;;;4.65;100.00;100394.42;106858;1295;22402;-54
2022/11/06 00:33:29;;;;;;;44.30;25.90;;;;;;;4.64;100.00;100393.93;106765;1302;125433;-53
2022/11/06 00:35:56;;;;;;;44.80;27.60;;;;;;;4.65;100.00;100393.08;106861;1303;22180;-54
2022/11/06 00:38:23;;;;;;;45.40;27.10;;;;;;;4.66;100.00;100394.23;106714;1302;138841;-53
2022/11/06 00:40:50;;;;;;;;;;;;;;;4.67;100.00;100388.19;106885;1303;22414;-54
2022/11/06 00:43:16;;;;;;;49.00;27.70;;;;;;;4.67;100.00;100388.23;106838;1302;22304;-53
2022/11/06 00:45:43;;;;;;;47.30;27.70;;;;;;;4.68;100.00;100386.66;106742;1303;139972;-53
2022/11/06 00:48:11;;;;;;;43.50;26.10;;;;;;;4.68;100.00;100385.87;106813;1295;22391;-54
2022/11/06 00:50:38;;;;;;;43.80;26.80;;;;;;;4.69;100.00;100382.48;106696;1303;138935;-53
2022/11/06 00:53:05;;;;;;;47.30;27.40;;;;;;;4.68;100.00;100376.36;106869;1303;22130;-53
2022/11/06 00:55:31;;;;;;;;;;;;;;;4.72;100.00;100379.25;106790;1303;139486;-54
2022/11/06 00:57:58;;;;;;;45.00;27.50;;;;;;;4.73;100.00;100375.69;106895;1303;22132;-53
2022/11/06 01:00:25;;;;;;;53.10;29.20;;;;;;;4.75;100.00;100377.29;106842;1303;22129;-53
2022/11/06 01:02:52;;;;;;;;;;;;;;;4.76;100.00;100375.33;106726;1303;138566;-54
2022/11/06 01:05:19;;;;;;;46.20;26.60;;;;;;;4.75;100.00;100370.56;106875;1301;22201;-53
2022/11/06 01:07:45;;;;;;;;;;;;;;;4.75;100.00;100377.63;106716;1301;139604;-53
2022/11/06 01:10:12;;;;;;;50.00;29.00;;;;;;;4.74;100.00;100383.09;106860;1300;22162;-53
2022/11/06 01:12:39;;;;;;;44.90;25.90;;;;;;;4.74;100.00;100385.13;106899;1302;22147;-54
2022/11/06 01:15:06;;;;;;;;;;;;;;;4.73;100.00;100387.48;106451;1297;138237;-53
2022/11/06 01:17:33;;;;;;;42.70;25.30;;;;;;;4.73;100.00;100389.77;106851;1294;22125;-54
2022/11/06 01:20:01;;;;;;;46.70;25.60;;;;;;;4.74;100.00;100391.45;106788;1303;139026;-54
2022/11/06 01:22:28;;;;;;;45.40;25.30;;;;;;;4.76;100.00;100386.55;106872;1303;22163;-54
2022/11/06 01:24:54;;;;;;;;;;;;;;;4.78;100.00;100394.17;106962;1303;23699;-54
2022/11/06 01:27:21;;;;;;;58.00;29.10;;;;;;;4.81;100.00;100385.65;102759;1303;125131;-52
2022/11/06 01:29:53;;;;;;;46.20;26.90;;;;;;;4.83;100.00;100384.76;106551;1302;22341;-54
2022/11/06 01:32:20;;;;;;;49.40;25.50;;;;;;;4.85;100.00;100382.23;106760;1303;138320;-54
2022/11/06 01:34:48;;;;;;;;;;;;;;;4.86;100.00;100380.84;106854;1303;22482;-54
2022/11/06 01:37:14;;;;;;;47.20;26.00;;;;;;;4.87;100.00;100383.54;106873;1302;22121;-54
2022/11/06 01:39:41;;;;;;;48.70;26.20;;;;;;;4.88;100.00;100379.89;106743;1300;139237;-54
2022/11/06 01:42:09;;;;;;;;;;;;;;;4.88;100.00;100375.56;106980;1294;23100;-54
2022/11/06 01:44:42;;;;;;;47.10;26.10;;;;;;;4.87;100.00;100370.99;106692;1302;124741;-54
2022/11/06 01:47:27;;;;;;;45.70;26.30;;;;;;;4.87;100.00;100372.28;106957;1303;22115;-54
2022/11/06 01:49:57;;;;;;;42.00;26.70;;;;;;;4.87;100.00;100373.20;106713;1301;139390;-54
2022/11/06 01:52:23;;;;;;;41.20;25.10;;;;;;;4.88;100.00;100373.16;106826;1293;22129;-54
2022/11/06 01:54:51;;;;;;;;;;;;;;;4.90;100.00;100373.87;106851;1303;22325;-54
2022/11/06 01:57:18;;;;;;;40.90;24.80;;;;;;;4.91;100.00;100375.45;106727;1303;124531;-54
2022/11/06 01:59:45;;;;;;;43.20;26.50;;;;;;;4.92;100.00;100377.73;106683;1303;22179;-54
2022/11/06 02:02:12;;;;;;;;;;;;;;;4.91;100.00;100382.46;106804;1274;139483;-54
2022/11/06 02:04:42;;;;;;;45.50;26.10;;;;;;;4.92;100.00;100381.05;106788;1303;22229;-54
2022/11/06 02:07:09;;;;;;;38.80;24.30;;;;;;;4.93;100.00;100379.81;106904;1303;22147;-54
2022/11/06 02:09:36;;;;;;;46.50;28.00;;;;;;;4.93;99.98;100376.48;106732;1302;138550;-54
2022/11/06 02:12:09;;;;;;;41.60;25.40;;;;;;;4.93;100.00;100375.77;106870;1303;22190;-53
2022/11/06 02:15:00;;;;;;;45.50;27.10;;;;;;;4.93;100.00;100375.54;106492;1302;138428;-53
2022/11/06 02:17:52;;;;;;;43.80;24.90;;;;;;;4.93;99.94;100376.07;106848;1303;22126;-54
2022/11/06 02:20:31;;;;;;;39.30;25.20;;;;;;;4.93;100.00;100375.56;106744;1302;140982;-53
2022/11/06 02:23:20;;;;;;;48.20;27.90;;;;;;;4.94;99.84;100375.70;106790;1303;22128;-54
2022/11/06 02:26:12;;;;;;;43.80;25.10;;;;;;;4.93;99.97;100373.83;106704;1295;138372;-54
2022/11/06 02:28:40;;;;;;;40.30;24.90;;;;;;;4.93;99.98;100374.36;106731;1303;22208;-53
2022/11/06 02:31:11;;;;;;;47.60;25.70;;;;;;;4.91;99.71;100370.24;106930;1300;22810;-53
2022/11/06 02:33:43;;;;;;;39.70;24.40;;;;;;;4.89;99.88;100372.00;106722;1300;138274;-53
2022/11/06 02:36:15;;;;;;;46.20;25.80;;;;;;;4.89;99.77;100374.91;104993;1303;24461;-53
2022/11/06 02:38:44;;;;;;;44.20;27.00;;;;;;;4.89;99.85;100374.88;102347;1286;138312;-52
2022/11/06 02:41:22;;;;;;;37.80;24.60;;;;;;;4.89;99.56;100374.45;106802;1303;22260;-54
2022/11/06 02:43:51;;;;;;;44.90;25.20;;;;;;;4.89;99.66;100372.88;106702;1295;139198;-54
2022/11/06 02:46:27;;;;;;;44.00;24.40;;;;;;;4.88;99.63;100374.98;106787;1298;22244;-54
2022/11/06 02:49:11;;;;;;;45.50;26.70;;;;;;;4.88;99.63;100380.09;106834;1303;22855;-53
2022/11/06 02:51:42;;;;;;;41.70;24.90;;;;;;;4.85;99.63;100379.16;106687;1287;138059;-53
2022/11/06 02:54:09;;;;;;;43.70;25.50;;;;;;;4.86;99.78;100382.45;106793;1302;22212;-53
2022/11/06 02:56:37;;;;;;;40.90;24.50;;;;;;;4.88;99.78;100380.02;106694;1303;139114;-54
2022/11/06 02:59:16;;;;;;;40.40;23.60;;;;;;;4.92;99.79;100375.05;106798;1296;22589;-53
2022/11/06 03:01:48;;;;;;;39.70;24.40;;;;;;;4.93;99.82;100373.91;106832;1302;22188;-53
2022/11/06 03:04:37;;;;;;;37.80;23.30;;;;;;;4.96;99.72;100377.17;106142;1306;138776;-53
2022/11/06 03:07:11;;;;;;;;;;;;;;;4.98;99.76;100376.48;106768;1300;22412;-59
2022/11/06 03:09:37;;;;;;;41.70;24.30;;;;;;;4.99;99.65;100377.82;106677;1306;124459;-59
2022/11/06 03:12:08;;;;;;;;;;;;;;;4.99;99.41;100374.77;106786;1303;22416;-59
2022/11/06 03:14:44;;;;;;;39.70;24.30;;;;;;;4.99;99.60;100375.20;106644;1296;22282;-59
2022/11/06 03:17:24;;;;;;;49.20;27.20;;;;;;;4.99;99.51;100377.52;106506;1303;138262;-59
2022/11/06 03:19:54;;;;;;;44.10;25.00;;;;;;;5.01;99.40;100375.00;106695;1295;22265;-59
2022/11/06 03:22:39;;;;;;;44.90;23.30;;;;;;;4.97;99.62;100367.88;106497;1299;138321;-59
2022/11/06 03:25:18;;;;;;;39.70;25.40;;;;;;;4.97;99.56;100363.97;106663;1305;22193;-59
2022/11/06 03:28:02;;;;;;;47.60;25.40;;;;;;;4.99;99.09;100368.75;106666;1303;138491;-59
2022/11/06 03:30:31;;;;;;;41.60;24.20;;;;;;;4.94;99.18;100366.86;106567;1303;22143;-59
2022/11/06 03:33:18;;;;;;;44.40;25.30;;;;;;;4.97;99.36;100371.95;106728;1303;22923;-60
2022/11/06 03:36:02;;;;;;;43.30;25.60;;;;;;;4.95;99.38;100364.98;106365;1313;137853;-60
2022/11/06 03:38:53;;;;;;;41.80;25.70;;;;;;;4.96;99.27;100366.23;106656;1305;22154;-60
2022/11/06 03:41:31;;;;;;;40.50;25.20;;;;;;;4.96;99.47;100362.59;106572;1303;139745;-60
2022/11/06 03:43:58;;;;;;;;;;;;;;;4.97;99.57;100359.36;106809;1303;22330;-60
2022/11/06 03:46:25;;;;;;;50.50;26.00;;;;;;;5.00;99.43;100355.13;106692;1294;126030;-60
2022/11/06 03:48:53;;;;;;;;;;;;;;;5.00;99.27;100357.63;106805;1302;22332;-60
2022/11/06 03:51:40;;;;;;;;;;;;;;;4.99;99.40;100356.45;106797;1303;22328;-59
2022/11/06 03:54:11;;;;;;;46.60;26.50;;;;;;;4.95;99.37;100351.70;106743;1302;22995;-60
2022/11/06 03:56:41;;;;;;;46.60;26.80;;;;;;;4.94;99.43;100345.04;106567;1305;22167;-59
2022/11/06 03:59:08;;;;;;;49.60;26.00;;;;;;;4.93;99.36;100342.83;106628;1303;139984;-59
2022/11/06 04:01:36;;;;;;;;;;;;;;;4.93;99.43;100343.38;106778;1303;22363;-60
2022/11/06 04:04:09;;;;;;;;;;;;;;;4.94;99.50;100344.13;106475;1303;124352;-60
2022/11/06 04:06:41;;;;;;;52.40;27.80;;;;;;;4.95;99.59;100348.17;104231;1302;24756;-60
2022/11/06 04:14:42;;;;;;;52.20;28.10;;;;;;;4.95;99.64;100358.89;106663;1301;22157;-59
2022/11/06 04:17:09;;;;;;;58.20;30.20;;;;;;;4.94;99.29;100357.76;106691;1301;139246;-59
2022/11/06 04:19:36;;;;;;;57.00;30.10;;;;;;;4.94;99.67;100357.21;106544;1301;23448;-61
2022/11/06 04:22:26;;;;;;;50.70;28.00;;;;;;;4.94;99.48;100359.63;106523;1296;138246;-60
2022/11/06 04:28:25;;;;;;;54.20;30.20;;;;;;;4.93;99.52;100358.00;106642;1295;138170;-60
2022/11/06 04:31:02;;;;;;;51.70;28.40;;;;;;;4.93;99.44;100354.30;106770;1300;22198;-60
2022/11/06 04:33:57;;;;;;;47.40;26.80;;;;;;;4.90;99.62;100347.40;106661;1301;22199;-60
2022/11/06 04:36:44;;;;;;;52.80;29.00;;;;;;;4.91;99.35;100355.38;106766;1303;22999;-60
2022/11/06 04:39:21;;;;;;;53.40;28.00;;;;;;;4.88;99.60;100351.56;106788;1307;22267;-60
2022/11/06 04:42:02;;;;;;;55.90;29.30;;;;;;;4.89;99.64;100351.73;106505;1305;138367;-60
2022/11/06 04:44:31;;;;;;;54.10;28.10;;;;;;;4.88;99.80;100352.59;106661;1306;23369;-60
2022/11/06 04:46:59;;;;;;;47.80;27.20;;;;;;;4.89;99.66;100352.02;106550;1306;139929;-60
2022/11/06 04:49:27;;;;;;;55.50;29.60;;;;;;;4.90;99.76;100357.17;106639;1306;22121;-60
2022/11/06 04:51:54;;;;;;;50.80;26.40;;;;;;;4.91;99.71;100360.58;106506;1304;139601;-60
2022/11/06 04:54:20;;;;;;;48.50;26.80;;;;;;;4.87;99.82;100361.21;106761;1297;22128;-60
2022/11/06 04:56:49;;;;;;;49.80;27.00;;;;;;;4.90;99.69;100368.27;106767;1307;22141;-60
2022/11/06 04:59:16;;;;;;;;;;;;;;;4.88;99.66;100373.58;106687;1309;139884;-60
2022/11/06 05:01:44;;;;;;;60.60;28.50;;;;;;;4.88;99.85;100373.61;106793;1309;22119;-60
2022/11/06 05:04:11;;;;;;;50.60;26.90;;;;;;;4.88;99.93;100373.95;106640;1308;139457;-60
2022/11/06 05:06:38;;;;;;;50.60;27.10;;;;;;;4.87;99.76;100374.48;106778;1303;22102;-60
2022/11/06 05:09:04;;;;;;;;;;;;;;;4.83;99.70;100381.26;106788;1309;22377;-60
2022/11/06 05:11:31;;;;;;;87.70;48.40;;;;;;;4.80;99.96;100382.36;106686;1303;125404;-60
2022/11/06 05:13:58;;;;;;;175.30;84.20;;;;;;;4.82;99.89;100385.37;106757;1293;22208;-61
2022/11/06 05:16:25;;;;;;;56.10;30.70;;;;;;;4.84;99.92;100391.03;106664;1294;139460;-60
2022/11/06 05:18:51;;;;;;;;;;;;;;;4.85;99.96;100391.63;106794;1303;23407;-60
2022/11/06 05:24:04;;;;;;;51.20;26.40;;;;;;;4.88;100.00;100397.51;106640;1302;140158;-60
2022/11/06 05:26:31;;;;;;;51.90;26.90;;;;;;;4.90;100.00;100398.67;106772;1303;22220;-60
2022/11/06 05:28:58;;;;;;;48.80;26.70;;;;;;;4.91;99.96;100395.80;106665;1309;139670;-60
2022/11/06 05:31:25;;;;;;;45.40;26.00;;;;;;;4.92;100.00;100396.99;106799;1302;22228;-60
2022/11/06 05:33:52;;;;;;;45.70;24.80;;;;;;;4.92;100.00;100397.50;106660;1303;139493;-59
2022/11/06 05:36:19;;;;;;;;;;;;;;;4.91;99.95;100394.71;106772;1303;22332;-60
2022/11/06 05:38:46;;;;;;;41.70;23.20;;;;;;;4.88;99.97;100388.73;106784;1301;22211;-59
2022/11/06 05:41:12;;;;;;;48.40;24.60;;;;;;;4.91;100.00;100402.16;106682;1302;139415;-59
2022/11/06 05:43:39;;;;;;;46.90;24.00;;;;;;;4.90;100.00;100399.17;106800;1303;22127;-59
2022/11/06 05:46:06;;;;;;;;;;;;;;;4.92;100.00;100404.11;106714;1303;140317;-59
2022/11/06 05:48:53;;;;;;;85.90;46.40;;;;;;;4.94;100.00;100406.52;106787;1302;22148;-60
2022/11/06 05:51:20;;;;;;;49.10;26.50;;;;;;;4.97;100.00;100409.26;106805;1301;22314;-61
2022/11/06 05:53:47;;;;;;;47.60;24.80;;;;;;;4.99;100.00;100411.02;106665;1303;139525;-61
2022/11/06 05:56:14;;;;;;;;;;;;;;;5.00;100.00;100412.64;106768;1301;22309;-61
2022/11/06 05:58:40;;;;;;;44.70;22.60;;;;;;;5.00;100.00;100413.93;106691;1303;124751;-62
2022/11/06 06:01:08;;;;;;;44.80;23.90;;;;;;;5.02;100.00;100409.70;106765;1303;23374;-61
2022/11/06 06:03:35;;;;;;;56.00;26.80;;;;;;;5.03;100.00;100415.90;106693;1301;22141;-61
2022/11/06 06:06:01;;;;;;;45.10;25.00;;;;;;;5.03;100.00;100421.51;106638;1303;138135;-61
2022/11/06 06:08:28;;;;;;;;;;;;;;;5.03;100.00;100419.39;106787;1287;22352;-61
2022/11/06 06:10:55;;;;;;;44.40;23.90;;;;;;;5.02;100.00;100417.09;106674;1303;124424;-60
2022/11/06 06:13:22;;;;;;;45.00;24.20;;;;;;;5.02;100.00;100416.56;106806;1303;22163;-60
2022/11/06 06:15:48;;;;;;;48.10;25.60;;;;;;;5.03;100.00;100419.97;105480;1302;138307;-60
2022/11/06 06:18:16;;;;;;;44.80;23.30;;;;;;;5.04;100.00;100417.03;106468;1296;22590;-61
2022/11/06 06:20:42;;;;;;;47.70;26.10;;;;;;;5.04;100.00;100420.85;106775;1303;22442;-61
2022/11/06 06:23:09;;;;;;;46.60;24.50;;;;;;;5.04;100.00;100420.80;106698;1303;138555;-61
2022/11/06 06:25:36;;;;;;;50.90;25.70;;;;;;;5.05;100.00;100425.80;106777;1303;22306;-61
2022/11/06 06:28:03;;;;;;;46.30;23.70;;;;;;;5.03;100.00;100422.89;106687;1303;138486;-61
2022/11/06 06:30:30;;;;;;;45.60;24.70;;;;;;;5.04;100.00;100421.30;106766;1302;23303;-60
2022/11/06 06:33:02;;;;;;;51.50;25.00;;;;;;;5.06;100.00;100426.65;106819;1286;22211;-61
2022/11/06 06:35:29;;;;;;;51.50;27.00;;;;;;;5.07;100.00;100429.70;106679;1302;138386;-61
2022/11/06 06:37:56;;;;;;;;;;;;;;;5.09;100.00;100432.20;102596;1286;22589;-60
2022/11/06 06:40:22;;;;;;;44.30;24.20;;;;;;;5.10;100.00;100434.23;102371;1295;123627;-62
2022/11/06 06:42:49;;;;;;;;;;;;;;;5.07;100.00;100434.77;102435;1300;22896;-60
2022/11/06 06:45:16;;;;;;;48.60;23.80;;;;;;;5.06;100.00;100435.66;102525;1294;24404;-60
2022/11/06 06:47:43;;;;;;;;;;;;;;;5.06;100.00;100440.90;102414;1289;139887;-61
2022/11/06 06:50:09;;;;;;;50.00;23.80;;;;;;;5.05;100.00;100438.83;102459;1310;25927;-61
2022/11/06 06:52:36;;;;;;;;;;;;;;;5.04;100.00;100441.37;102353;1289;139236;-60
2022/11/06 06:55:04;;;;;;;54.30;25.50;;;;;;;4.98;100.00;100431.28;102377;1289;22886;-61
2022/11/06 06:57:31;;;;;;;63.10;27.20;;;;;;;4.98;100.00;100429.86;102507;1302;22605;-61
2022/11/06 06:59:58;;;;;;;;;;;;;;;5.03;100.00;100442.37;102436;1310;138263;-61
2022/11/06 07:02:24;;;;;;;54.10;27.90;;;;;;;5.02;100.00;100442.08;102437;1310;22485;-60
2022/11/06 07:04:51;;;;;;;60.50;28.30;;;;;;;5.02;100.00;100447.22;102379;1304;139287;-61
2022/11/06 07:07:18;;;;;;;55.10;27.90;;;;;;;5.03;100.00;100448.80;102432;1285;22517;-60
2022/11/06 07:09:45;;;;;;;66.30;30.40;;;;;;;5.04;100.00;100447.44;102364;1295;140223;-60
2022/11/06 07:12:12;;;;;;;48.40;25.40;;;;;;;5.04;100.00;100449.27;102409;1288;22858;-61
2022/11/06 07:14:38;;;;;;;;;;;;;;;4.98;100.00;100442.66;102424;1281;22590;-61
2022/11/06 07:17:05;;;;;;;51.70;25.40;;;;;;;5.01;100.00;100446.05;102304;1295;124374;-60
2022/11/06 07:19:32;;;;;;;62.20;28.90;;;;;;;4.99;100.00;100446.83;102412;1289;24388;-59
2022/11/06 07:24:58;;;;;;;56.10;26.00;;;;;;;4.98;100.00;100445.89;99711;1339;545114;-60
2022/11/06 07:27:25;;;;;;;;;;;;;;;4.98;100.00;100448.89;101789;1295;22480;-55
2022/11/06 07:29:51;;;;;;;67.10;31.40;;;;;;;4.99;100.00;100450.77;100732;1304;124904;-55
2022/11/06 07:32:18;;;;;;;51.50;26.80;;;;;;;4.99;100.00;100453.67;101114;1301;25347;-56
2022/11/06 07:34:45;;;;;;;;;;;;;;;4.99;100.00;100454.89;100940;1308;137792;-56
2022/11/06 07:37:12;;;;;;;55.70;27.40;;;;;;;5.01;100.00;100454.73;101162;1322;22644;-55
2022/11/06 07:39:39;;;;;;;61.10;30.90;;;;;;;5.01;100.00;100454.48;100569;1307;1021576;-55
2022/11/06 07:42:06;;;;;;;59.50;28.80;;;;;;;5.04;100.00;100457.95;101200;1298;137950;-55
2022/11/06 07:44:34;;;;;;;59.40;28.80;;;;;;;5.05;100.00;100457.24;101327;1298;24054;-57
2022/11/06 07:47:00;;;;;;;;;;;;;;;5.04;100.00;100457.86;101241;1310;138736;-56
2022/11/06 07:49:27;;;;;;;57.90;30.10;;;;;;;5.10;100.00;100464.33;101387;1297;22890;-56
2022/11/06 07:51:54;;;;;;;60.30;26.20;;;;;;;5.11;100.00;100470.45;101427;1298;138156;-57
2022/11/06 07:54:21;;;;;;;53.50;25.70;;;;;;;5.12;100.00;100471.82;101279;1306;22500;-57
2022/11/06 07:56:47;;;;;;;;;;;;;;;5.14;100.00;100471.38;101564;1298;24512;-61
2022/11/06 07:59:14;;;;;;;52.10;25.50;;;;;;;5.17;100.00;100472.20;101265;1298;124833;-61
2022/11/06 08:01:41;;;;;;;;;;;;;;;5.20;100.00;100470.66;101275;1308;22931;-61
2022/11/06 08:04:08;;;;;;;49.10;25.50;;;;;;;5.21;100.00;100471.41;101150;1314;124317;-61
2022/11/06 08:06:35;;;;;;;53.30;26.50;;;;;;;5.21;100.00;100473.69;101206;1314;22499;-60
2022/11/06 08:09:06;;;;;;;;;;;;;;;5.21;100.00;100475.94;101272;1322;22529;-61
2022/11/06 08:11:33;;;;;;;48.60;23.60;;;;;;;5.23;100.00;100476.29;101251;1308;124833;-61
2022/11/06 08:14:00;;;;;;;58.50;26.60;;;;;;;5.24;100.00;100474.09;101292;1298;22500;-62
2022/11/06 08:16:26;;;;;;;54.10;27.50;;;;;;;5.26;100.00;100476.89;101290;1300;138196;-61
2022/11/06 08:18:53;;;;;;;;;;;;;;;5.29;100.00;100479.44;101606;1298;22840;-60
2022/11/06 08:21:20;;;;;;;48.10;25.50;;;;;;;5.30;100.00;100476.08;105378;1314;21901;-60
2022/11/06 08:23:47;;;;;;;;;;;;;;;5.31;100.00;100479.88;105873;1291;138713;-60
2022/11/06 08:26:14;;;;;;;54.10;25.70;;;;;;;5.33;100.00;100482.33;105800;1291;22362;-60
2022/11/06 08:28:41;;;;;;;;;;;;;;;5.33;100.00;100485.63;105752;1315;138702;-61
2022/11/06 08:31:08;;;;;;;48.90;24.90;;;;;;;5.33;100.00;100483.75;105808;1307;22226;-61
2022/11/06 08:33:36;;;;;;;44.30;23.80;;;;;;;5.36;100.00;100484.29;105806;1315;22236;-60
2022/11/06 08:36:04;;;;;;;47.00;24.30;;;;;;;5.38;100.00;100485.09;105705;1315;138205;-60
2022/11/06 08:38:31;;;;;;;53.40;26.40;;;;;;;5.40;100.00;100486.27;105761;1315;22223;-63
2022/11/06 08:40:57;;;;;;;47.40;24.80;;;;;;;5.43;100.00;100490.73;105866;1315;139478;-61
2022/11/06 08:43:25;;;;;;;55.20;27.60;;;;;;;5.47;100.00;100489.05;105803;1315;22175;-61
2022/11/06 08:45:52;;;;;;;51.00;26.50;;;;;;;5.48;100.00;100486.30;105790;1315;139578;-60
2022/11/06 08:48:19;;;;;;;;;;;;;;;5.50;100.00;100491.05;105944;1305;22376;-60
2022/11/06 08:50:45;;;;;;;51.10;25.90;;;;;;;5.51;100.00;100490.52;106000;1315;22173;-61
2022/11/06 08:53:12;;;;;;;;;;;;;;;5.51;100.00;100486.78;105756;1307;138208;-62
2022/11/06 08:55:39;;;;;;;48.40;26.10;;;;;;;5.56;100.00;100489.42;105813;1315;22322;-61
2022/11/06 08:58:06;;;;;;;;;;;;;;;5.54;100.00;100482.63;105747;1315;140273;-62
2022/11/06 09:00:33;;;;;;;42.90;23.90;;;;;;;5.58;100.00;100490.26;105845;1315;22151;-61
2022/11/06 09:03:06;;;;;;;;;;;;;;;5.59;100.00;100489.39;105826;1305;22432;-61
2022/11/06 09:05:33;;;;;;;56.10;27.90;;;;;;;5.61;100.00;100488.58;105697;1315;124533;-62
2022/11/06 09:08:00;;;;;;;51.30;24.90;;;;;;;5.61;100.00;100489.58;105813;1314;22091;-61
2022/11/06 09:10:26;;;;;;;;;;;;;;;5.60;100.00;100489.23;105728;1283;138293;-61
2022/11/06 09:12:54;;;;;;;48.20;25.90;;;;;;;5.59;100.00;100488.61;105915;1315;22271;-61
2022/11/06 09:15:21;;;;;;;49.90;25.60;;;;;;;5.59;100.00;100489.73;105925;1314;22170;-61
2022/11/06 09:17:49;;;;;;;52.70;26.30;;;;;;;5.60;100.00;100492.61;105700;1315;138152;-61
2022/11/06 09:20:17;;;;;;;51.70;26.70;;;;;;;5.62;100.00;100492.52;105849;1313;22219;-61
2022/11/06 09:22:45;;;;;;;47.70;24.10;;;;;;;5.64;100.00;100488.52;105803;1300;138401;-60
2022/11/06 09:25:12;;;;;;;51.90;25.10;;;;;;;5.64;100.00;100488.08;105938;1315;22311;-61
2022/11/06 09:27:42;;;;;;;46.20;24.30;;;;;;;5.63;100.00;100488.06;105935;1307;22208;-61
2022/11/06 09:30:11;;;;;;;50.70;25.50;;;;;;;5.63;99.94;100485.03;105810;1315;22162;-61
2022/11/06 09:32:37;;;;;;;44.70;24.40;;;;;;;5.63;99.95;100485.36;105798;1301;23174;-61
2022/11/06 09:35:05;;;;;;;46.10;23.10;;;;;;;5.66;100.00;100479.80;105711;1315;138511;-61
2022/11/06 09:37:31;;;;;;;45.40;22.50;;;;;;;5.66;99.96;100483.13;105838;1309;23219;-61
2022/11/06 09:39:58;;;;;;;49.10;24.00;;;;;;;5.66;99.82;100479.96;105777;1315;138643;-60
2022/11/06 09:42:45;;;;;;;37.40;21.90;;;;;;;5.68;99.90;100476.61;105873;1315;22319;-60
2022/11/06 09:45:21;;;;;;;40.00;22.00;;;;;;;5.71;99.95;100481.65;105830;1315;22275;-60
2022/11/06 09:47:51;;;;;;;42.90;21.60;;;;;;;5.69;99.89;100478.08;105698;1315;140080;-60
2022/11/06 09:50:20;;;;;;;45.10;22.20;;;;;;;5.74;99.80;100482.34;105806;1315;22201;-60
2022/11/06 09:52:49;;;;;;;40.20;21.20;;;;;;;5.76;99.81;100484.60;105569;1315;139129;-60
2022/11/06 09:55:24;;;;;;;44.90;22.50;;;;;;;5.76;99.58;100478.83;105672;1315;22162;-60
2022/11/06 09:58:02;;;;;;;45.50;23.60;;;;;;;5.76;99.37;100481.69;105700;1308;138365;-60
2022/11/06 10:00:29;;;;;;;45.00;24.00;;;;;;;5.75;99.18;100481.52;105729;1315;22214;-60
2022/11/06 10:02:55;;;;;;;;;;;;;;;5.74;99.23;100480.47;105852;1315;23244;-61
2022/11/06 10:05:33;;;;;;;46.90;22.70;;;;;;;5.73;99.10;100475.39;105722;1315;124493;-61
2022/11/06 10:08:04;;;;;;;;;;;;;;;5.71;99.07;100473.38;105802;1307;22359;-61
2022/11/06 10:10:40;;;;;;;44.10;23.10;;;;;;;5.69;99.08;100474.33;105766;1315;125284;-61
2022/11/06 10:13:25;;;;;;;44.90;24.20;;;;;;;5.68;99.10;100474.57;105861;1315;22092;-60
2022/11/06 10:15:55;;;;;;;43.70;25.00;;;;;;;5.67;99.13;100471.15;105753;1315;139232;-60
2022/11/06 10:18:34;;;;;;;53.50;29.80;;;;;;;5.67;98.96;100468.86;105799;1315;22953;-61
2022/11/06 10:21:31;;;;;;;57.80;27.60;;;;;;;5.67;99.09;100467.87;106470;1305;22238;-61
2022/11/06 10:23:59;;;;;;;48.50;26.60;;;;;;;5.68;99.41;100462.52;105751;1314;138129;-61
2022/11/06 10:26:46;;;;;;;44.90;23.10;;;;;;;5.70;99.36;100461.19;105755;1307;22177;-60
2022/11/06 10:29:28;;;;;;;52.10;26.50;;;;;;;5.70;99.45;100456.15;105588;1314;139165;-61
2022/11/06 10:32:14;;;;;;;44.50;24.00;;;;;;;5.66;99.31;100454.02;105829;1290;22348;-61
2022/11/06 10:34:43;;;;;;;36.40;19.50;;;;;;;5.69;99.19;100453.95;105650;1314;138348;-61
2022/11/06 10:37:22;;;;;;;39.50;21.70;;;;;;;5.69;99.28;100454.83;105677;1314;22181;-61
2022/11/06 10:39:49;;;;;;;33.30;20.80;;;;;;;5.70;99.34;100453.66;105407;1314;138279;-61
2022/11/06 10:42:17;;;;;;;33.80;19.90;;;;;;;5.70;99.19;100451.98;105754;1314;22462;-62
2022/11/06 10:44:57;;;;;;;37.70;20.90;;;;;;;5.72;99.14;100450.34;105848;1303;22176;-61
2022/11/06 10:47:47;;;;;;;34.80;20.40;;;;;;;5.75;99.27;100452.89;101646;1300;138788;-61
2022/11/06 10:50:14;;;;;;;38.50;22.50;;;;;;;5.77;99.11;100449.73;101289;1297;22554;-60
2022/11/06 10:53:05;;;;;;;93.40;48.10;;;;;;;5.76;99.27;100444.12;105673;1311;138298;-63
2022/11/06 10:55:38;;;;;;;40.10;23.60;;;;;;;5.78;99.38;100444.68;105657;1315;22256;-63
2022/11/06 10:58:09;;;;;;;33.00;20.50;;;;;;;5.78;99.18;100441.77;102204;1307;139339;-61
2022/11/06 11:00:37;;;;;;;36.10;20.60;;;;;;;5.80;99.30;100440.20;105257;1316;22873;-63
2022/11/06 11:03:05;;;;;;;38.30;22.80;;;;;;;5.82;99.41;100439.29;106451;1300;22931;-62
2022/11/06 11:05:39;;;;;;;44.10;22.70;;;;;;;5.83;99.30;100440.51;106279;1307;139208;-62
2022/11/06 11:08:06;;;;;;;39.80;22.40;;;;;;;5.82;99.12;100439.38;106515;1299;22113;-62
2022/11/06 11:10:34;;;;;;;40.20;21.10;;;;;;;5.81;99.01;100436.88;106267;1297;138427;-62
2022/11/06 11:13:03;;;;;;;36.50;21.30;;;;;;;5.82;99.08;100432.09;106464;1283;22225;-62
2022/11/06 11:15:43;;;;;;;34.80;20.00;;;;;;;5.82;99.09;100432.77;105761;1299;25388;-61
2022/11/06 11:18:36;;;;;;;38.50;20.00;;;;;;;5.83;98.94;100431.93;102104;1291;22493;-61
2022/11/06 11:21:13;;;;;;;38.70;21.20;;;;;;;5.78;98.96;100424.64;102135;1294;23870;-61
2022/11/06 11:23:40;;;;;;;;;;;;;;;5.81;98.76;100426.35;102033;1301;139029;-61
2022/11/06 11:26:18;;;;;;;35.50;18.40;;;;;;;5.79;98.82;100423.34;102489;1303;22968;-61
2022/11/06 11:28:55;;;;;;;27.70;16.60;;;;;;;5.76;98.68;100422.60;102398;1304;138786;-61
2022/11/06 11:31:27;;;;;;;31.60;18.30;;;;;;;5.70;98.59;100417.92;106636;1302;22166;-61
2022/11/06 11:33:55;;;;;;;30.70;19.20;;;;;;;5.66;98.41;100419.33;106576;1297;138932;-61
2022/11/06 11:36:22;;;;;;;28.20;17.60;;;;;;;5.63;98.53;100422.30;106736;1294;22917;-61
2022/11/06 11:38:49;;;;;;;30.60;18.10;;;;;;;5.61;98.38;100425.27;106725;1295;22246;-62
2022/11/06 11:41:19;;;;;;;;;;;;;;;5.60;98.28;100424.18;106526;1296;138239;-62
2022/11/06 11:43:55;;;;;;;31.70;19.40;;;;;;;5.58;98.34;100417.90;106746;1302;22863;-60
2022/11/06 11:46:22;;;;;;;33.10;18.70;;;;;;;5.58;98.29;100417.08;106628;1282;139443;-62
2022/11/06 11:48:49;;;;;;;;;;;;;;;5.57;98.34;100416.86;106702;1303;22349;-62